Time;durP1;ratioP1;P1;durP2;ratioP2;P2;SDS_P1;SDS_P2;PMS_P1;PMS_P2;Temp;Humidity;BMP_temperature;BMP_pressure;BME280_temperature;BME280_humidity;BME280_pressure;Samples;Min_cycle;Max_cycle;Signal;HPM_P1;HPM_P2
2023/12/23 00:00:11;;;;;;;16.10;2.20;;;5.10;99.90;;;;;;5123149;27;20452;-76
2023/12/23 00:02:37;;;;;;;18.05;2.03;;;5.10;99.90;;;;;;5125607;27;20597;-76
2023/12/23 00:05:03;;;;;;;14.50;2.50;;;5.10;99.90;;;;;;5141309;27;20126;-76
2023/12/23 00:07:28;;;;;;;13.32;2.53;;;5.10;99.90;;;;;;5131065;27;20040;-76
2023/12/23 00:09:54;;;;;;;11.93;2.03;;;5.10;99.90;;;;;;5128238;27;20027;-76
2023/12/23 00:12:20;;;;;;;15.40;2.15;;;5.10;99.90;;;;;;5096338;28;20032;-76
2023/12/23 00:14:45;;;;;;;12.40;1.83;;;5.10;99.90;;;;;;5111211;28;20063;-76
2023/12/23 00:17:11;;;;;;;11.40;1.80;;;5.10;99.90;;;;;;5145517;27;20040;-76
2023/12/23 00:19:37;;;;;;;14.30;2.50;;;5.20;99.90;;;;;;5129425;28;20070;-76
2023/12/23 00:22:02;;;;;;;12.07;2.20;;;5.10;99.90;;;;;;5093680;28;20085;-76
2023/12/23 00:24:29;;;;;;;12.95;2.15;;;5.20;99.90;;;;;;5110331;28;20048;-76
2023/12/23 00:26:57;;;;;;;13.20;2.00;;;5.20;99.90;;;;;;5112440;28;20105;-76
2023/12/23 00:29:24;;;;;;;12.45;2.28;;;5.20;99.90;;;;;;5094699;28;20086;-76
2023/12/23 00:31:50;;;;;;;9.85;1.67;;;5.20;99.90;;;;;;5126693;28;20067;-76
2023/12/23 00:34:16;;;;;;;17.48;2.38;;;5.20;99.90;;;;;;5111457;28;20443;-76
2023/12/23 00:36:41;;;;;;;10.68;1.85;;;5.10;99.90;;;;;;5112073;28;20034;-76
2023/12/23 00:39:07;;;;;;;9.90;1.58;;;5.20;99.90;;;;;;5109728;28;20023;-76
2023/12/23 00:41:32;;;;;;;10.35;1.88;;;5.20;99.90;;;;;;5092856;28;20031;-76
2023/12/23 00:43:58;;;;;;;15.18;1.98;;;5.10;99.90;;;;;;5094226;28;20506;-76
2023/12/23 00:46:24;;;;;;;14.60;2.00;;;5.20;99.90;;;;;;5111992;28;20126;-76
2023/12/23 00:48:49;;;;;;;10.88;2.05;;;5.20;99.90;;;;;;5110652;28;20043;-76
2023/12/23 00:51:15;;;;;;;9.95;1.75;;;5.20;99.90;;;;;;5126534;28;20034;-76
2023/12/23 00:53:40;;;;;;;12.00;3.08;;;5.20;99.90;;;;;;5094154;28;20407;-76
2023/12/23 00:56:06;;;;;;;11.05;1.80;;;5.20;99.90;;;;;;5146130;27;20040;-76
2023/12/23 00:58:32;;;;;;;8.85;1.52;;;5.30;99.90;;;;;;5094094;28;20056;-76
2023/12/23 01:00:58;;;;;;;12.63;1.83;;;5.30;99.90;;;;;;5127876;27;20416;-76
2023/12/23 01:03:23;;;;;;;10.23;1.77;;;5.30;99.90;;;;;;5094013;28;20395;-76
2023/12/23 01:05:49;;;;;;;15.98;2.53;;;5.30;99.90;;;;;;5128772;28;20035;-76
2023/12/23 01:08:14;;;;;;;12.98;1.83;;;5.30;99.90;;;;;;5094326;28;20452;-76
2023/12/23 01:10:40;;;;;;;12.35;2.03;;;5.30;99.90;;;;;;5130173;27;20040;-76
2023/12/23 01:13:06;;;;;;;11.27;2.10;;;5.40;99.90;;;;;;5097885;28;20042;-76
2023/12/23 01:15:31;;;;;;;12.90;2.28;;;5.30;99.90;;;;;;5098499;28;20046;-76
2023/12/23 01:17:57;;;;;;;12.77;2.33;;;5.30;99.90;;;;;;5149930;27;20032;-76
2023/12/23 01:20:22;;;;;;;8.90;1.33;;;5.30;99.90;;;;;;5147889;27;20051;-76
2023/12/23 01:22:48;;;;;;;7.75;1.73;;;5.40;99.90;;;;;;5115054;28;20054;-76
2023/12/23 01:25:14;;;;;;;13.52;2.25;;;5.50;99.90;;;;;;5131999;27;20039;-75
2023/12/23 01:27:39;;;;;;;10.20;2.33;;;5.40;99.90;;;;;;5098606;28;20027;-75
2023/12/23 01:30:06;;;;;;;16.40;2.80;;;5.40;99.90;;;;;;5148845;27;20126;-76
2023/12/23 01:32:31;;;;;;;15.25;2.92;;;5.50;99.90;;;;;;5130294;27;20048;-75
2023/12/23 01:34:57;;;;;;;17.05;2.17;;;5.60;99.90;;;;;;5097687;28;20043;-75
2023/12/23 01:37:22;;;;;;;12.02;2.97;;;5.50;99.90;;;;;;5132555;27;20480;-75
2023/12/23 01:39:48;;;;;;;13.40;2.25;;;5.50;99.90;;;;;;5115361;28;20122;-76
2023/12/23 01:42:14;;;;;;;15.88;2.22;;;5.60;99.90;;;;;;5096990;28;20039;-75
2023/12/23 01:44:39;;;;;;;12.77;2.00;;;5.60;99.90;;;;;;5097149;28;20039;-76
2023/12/23 01:47:05;;;;;;;13.55;2.85;;;5.70;99.90;;;;;;5113480;28;20102;-75
2023/12/23 01:49:31;;;;;;;17.13;2.53;;;5.70;99.90;;;;;;5149305;27;20035;-76
2023/12/23 01:51:59;;;;;;;14.15;2.00;;;5.70;99.90;;;;;;5147406;27;20487;-75
2023/12/23 01:54:26;;;;;;;14.77;1.85;;;5.70;99.90;;;;;;5113897;28;20566;-75
2023/12/23 01:56:53;;;;;;;15.38;2.33;;;5.70;99.90;;;;;;5132128;27;20552;-75
2023/12/23 01:59:19;;;;;;;11.85;1.90;;;5.70;99.90;;;;;;5097549;28;20054;-75
2023/12/23 02:01:45;;;;;;;12.30;2.03;;;5.80;99.90;;;;;;5147927;27;20029;-75
2023/12/23 02:04:11;;;;;;;11.95;2.03;;;5.80;99.90;;;;;;5096961;28;20099;-75
2023/12/23 02:06:37;;;;;;;13.85;2.40;;;5.80;99.90;;;;;;5131680;27;20048;-75
2023/12/23 02:09:04;;;;;;;12.82;1.83;;;5.90;99.90;;;;;;5132001;27;20066;-75
2023/12/23 02:11:45;;;;;;;11.68;2.20;;;5.80;99.90;;;;;;5097717;28;20492;-75
2023/12/23 02:14:36;;;;;;;10.40;1.77;;;5.80;99.90;;;;;;5130662;27;20047;-76
2023/12/23 02:17:02;;;;;;;16.25;1.67;;;5.80;99.90;;;;;;5128020;27;20068;-76
2023/12/23 02:19:28;;;;;;;10.98;1.95;;;5.90;99.90;;;;;;5111221;28;20095;-75
2023/12/23 02:21:53;;;;;;;11.82;1.92;;;5.90;99.90;;;;;;5116845;27;20063;-75
2023/12/23 02:24:19;;;;;;;10.88;1.25;;;5.80;99.90;;;;;;5077787;28;20400;-75
2023/12/23 02:26:50;;;;;;;12.65;1.73;;;5.80;99.90;;;;;;5100780;27;20042;-75
2023/12/23 02:29:17;;;;;;;12.93;1.50;;;5.80;99.90;;;;;;5099772;27;20057;-75
2023/12/23 02:31:44;;;;;;;9.07;1.85;;;5.80;99.90;;;;;;5116363;27;20036;-75
2023/12/23 02:34:10;;;;;;;11.60;1.65;;;5.80;99.90;;;;;;5085216;28;20035;-76
2023/12/23 02:36:35;;;;;;;11.75;1.67;;;5.80;99.90;;;;;;5146136;27;20070;-76
2023/12/23 02:39:01;;;;;;;11.65;2.10;;;5.80;99.90;;;;;;5130398;27;20172;-76
2023/12/23 02:41:26;;;;;;;11.63;2.08;;;5.80;99.90;;;;;;5112242;28;20035;-76
2023/12/23 02:43:52;;;;;;;10.05;1.50;;;5.80;99.90;;;;;;5098113;27;20043;-75
2023/12/23 02:46:18;;;;;;;10.32;2.53;;;5.90;99.90;;;;;;5108951;28;20488;-76
2023/12/23 02:48:44;;;;;;;9.10;1.23;;;5.80;99.90;;;;;;5096808;28;20538;-75
2023/12/23 02:51:10;;;;;;;9.15;1.30;;;5.90;99.90;;;;;;5093396;28;20185;-75
2023/12/23 02:53:35;;;;;;;8.65;1.27;;;5.90;99.90;;;;;;5147295;27;20502;-75
2023/12/23 02:56:01;;;;;;;9.05;1.40;;;5.90;99.90;;;;;;5130503;27;20032;-75
2023/12/23 02:58:27;;;;;;;9.85;1.60;;;5.80;99.90;;;;;;5096093;28;20044;-75
2023/12/23 03:00:52;;;;;;;5.78;1.17;;;5.90;99.90;;;;;;5096591;28;20031;-75
2023/12/23 03:03:18;;;;;;;6.47;1.10;;;5.70;99.90;;;;;;5111071;28;20484;-76
2023/12/23 03:05:43;;;;;;;7.22;1.05;;;5.80;99.90;;;;;;5094245;28;20043;-76
2023/12/23 03:08:09;;;;;;;8.10;1.10;;;5.80;99.90;;;;;;5113412;28;20035;-76
2023/12/23 03:10:35;;;;;;;10.52;0.98;;;5.70;99.90;;;;;;5111600;28;20039;-76
2023/12/23 03:13:00;;;;;;;4.68;0.73;;;5.70;99.90;;;;;;5138168;27;20042;-76
2023/12/23 03:15:26;;;;;;;6.32;1.30;;;5.70;99.90;;;;;;5096252;28;20488;-76
2023/12/23 03:17:52;;;;;;;9.38;1.30;;;5.60;99.90;;;;;;5094938;28;20044;-76
2023/12/23 03:20:18;;;;;;;10.45;1.08;;;5.70;99.90;;;;;;5113299;28;20047;-76
2023/12/23 03:22:43;;;;;;;8.52;1.15;;;5.70;99.90;;;;;;5137935;27;20399;-76
2023/12/23 03:25:09;;;;;;;6.85;1.08;;;5.70;99.90;;;;;;5095848;28;20511;-76
2023/12/23 03:27:36;;;;;;;7.57;1.27;;;5.60;99.90;;;;;;5095719;28;20035;-76
2023/12/23 03:30:01;;;;;;;7.88;1.10;;;5.70;99.90;;;;;;5146067;27;20039;-76
2023/12/23 03:32:27;;;;;;;6.13;1.23;;;5.60;99.90;;;;;;5095275;28;20539;-76
2023/12/23 03:34:52;;;;;;;8.02;1.35;;;5.60;99.90;;;;;;5094379;28;20043;-76
2023/12/23 03:37:18;;;;;;;9.43;2.00;;;5.60;99.90;;;;;;5095204;28;20043;-76
2023/12/23 03:39:44;;;;;;;7.15;1.15;;;5.60;99.90;;;;;;5111892;28;20043;-76
2023/12/23 03:42:09;;;;;;;7.78;1.25;;;5.60;99.90;;;;;;5112723;28;20035;-76
2023/12/23 03:44:35;;;;;;;6.60;0.95;;;5.60;99.90;;;;;;5110576;28;20044;-76
2023/12/23 03:47:00;;;;;;;8.48;1.33;;;5.60;99.90;;;;;;5095669;28;20399;-76
2023/12/23 03:49:26;;;;;;;9.35;1.25;;;5.60;99.90;;;;;;5094346;28;20685;-76
2023/12/23 03:51:52;;;;;;;6.80;0.90;;;5.50;99.90;;;;;;5092853;28;20043;-76
2023/12/23 03:54:17;;;;;;;5.47;1.40;;;5.60;99.90;;;;;;5128618;27;20553;-76
2023/12/23 03:56:43;;;;;;;6.60;0.98;;;5.60;99.90;;;;;;5111082;28;20209;-76
2023/12/23 03:59:08;;;;;;;9.95;1.42;;;5.50;99.90;;;;;;5112263;28;20067;-76
2023/12/23 04:01:34;;;;;;;5.60;1.10;;;5.60;99.90;;;;;;5111497;28;20491;-76
2023/12/23 04:04:00;;;;;;;8.52;1.15;;;5.60;99.90;;;;;;5129628;27;20049;-76
2023/12/23 04:06:28;;;;;;;5.32;1.10;;;5.60;99.90;;;;;;5144443;27;20476;-76
2023/12/23 04:08:55;;;;;;;8.48;1.23;;;5.60;99.90;;;;;;5111767;28;20036;-77
2023/12/23 04:11:21;;;;;;;3.90;0.82;;;5.50;99.90;;;;;;5095425;28;20032;-77
2023/12/23 04:13:46;;;;;;;9.43;1.25;;;5.60;99.90;;;;;;5094460;28;20114;-77
2023/12/23 04:16:12;;;;;;;6.32;1.08;;;5.60;99.90;;;;;;5094454;28;20047;-78
2023/12/23 04:18:37;;;;;;;5.32;0.88;;;5.70;99.90;;;;;;5094569;28;20411;-77
2023/12/23 04:21:08;;;;;;;8.18;1.30;;;5.70;99.90;;;;;;5095249;28;20031;-77
2023/12/23 04:23:33;;;;;;;3.70;0.80;;;5.70;99.90;;;;;;5095374;28;20044;-77
2023/12/23 04:25:59;;;;;;;5.40;1.13;;;5.60;99.90;;;;;;5094013;28;20039;-77
2023/12/23 04:28:24;;;;;;;8.20;1.00;;;5.60;99.90;;;;;;5110777;28;20086;-77
2023/12/23 04:30:54;;;;;;;5.85;0.80;;;5.70;99.90;;;;;;5095281;28;20042;-77
2023/12/23 04:33:21;;;;;;;5.30;0.90;;;5.60;99.90;;;;;;5110958;28;20121;-77
2023/12/23 04:35:47;;;;;;;5.35;1.30;;;5.50;99.90;;;;;;5113701;27;20091;-77
2023/12/23 04:38:14;;;;;;;7.35;1.08;;;5.60;99.90;;;;;;5153343;27;20042;-77
2023/12/23 04:40:40;;;;;;;7.93;1.23;;;5.70;99.90;;;;;;5115704;28;20046;-77
2023/12/23 04:43:05;;;;;;;4.85;1.10;;;5.70;99.90;;;;;;5101644;28;20036;-77
2023/12/23 04:45:31;;;;;;;6.85;1.33;;;5.70;99.90;;;;;;5099152;28;20050;-77
2023/12/23 04:47:56;;;;;;;4.60;0.88;;;5.70;99.90;;;;;;5113779;28;20039;-77
2023/12/23 04:50:22;;;;;;;4.35;0.80;;;5.70;99.90;;;;;;5116140;28;20120;-77
2023/12/23 04:52:48;;;;;;;6.00;0.85;;;5.70;99.90;;;;;;5098021;27;20169;-77
2023/12/23 04:55:14;;;;;;;7.03;1.00;;;5.70;99.90;;;;;;5111944;27;20043;-77
2023/12/23 04:57:40;;;;;;;7.82;1.17;;;5.70;99.90;;;;;;5117584;27;20050;-77
2023/12/23 05:00:06;;;;;;;7.63;1.95;;;5.70;99.90;;;;;;5097850;28;20043;-77
2023/12/23 05:02:33;;;;;;;5.45;1.10;;;5.80;99.90;;;;;;5098799;28;20088;-77
2023/12/23 05:04:58;;;;;;;7.75;1.10;;;5.80;99.90;;;;;;5115227;28;20047;-77
2023/12/23 05:07:24;;;;;;;5.57;0.90;;;5.90;99.90;;;;;;5098705;28;20122;-77
2023/12/23 05:09:50;;;;;;;5.63;1.00;;;5.80;99.90;;;;;;5096724;28;20369;-77
2023/12/23 05:12:16;;;;;;;3.75;1.00;;;5.90;99.90;;;;;;5099004;28;20035;-77
2023/12/23 05:14:41;;;;;;;4.70;0.88;;;5.80;99.90;;;;;;5096729;28;20099;-77
2023/12/23 05:17:07;;;;;;;4.55;0.90;;;5.70;99.90;;;;;;5115548;28;20088;-76
2023/12/23 05:19:34;;;;;;;6.25;1.33;;;5.70;99.90;;;;;;5114912;27;20164;-76
2023/12/23 05:21:59;;;;;;;3.38;0.68;;;5.70;99.90;;;;;;5098452;28;20035;-76
2023/12/23 05:24:25;;;;;;;3.78;0.88;;;5.60;99.90;;;;;;5115109;28;20039;-77
2023/12/23 05:26:51;;;;;;;3.60;0.73;;;5.60;99.90;;;;;;5112482;28;20092;-77
2023/12/23 05:29:16;;;;;;;3.42;0.55;;;5.70;99.90;;;;;;5115316;28;20042;-77
2023/12/23 05:31:42;;;;;;;4.80;2.05;;;5.70;99.90;;;;;;5113359;28;20046;-77
2023/12/23 05:34:08;;;;;;;8.75;3.60;;;5.70;99.90;;;;;;5097333;28;20051;-77
2023/12/23 05:36:33;;;;;;;7.90;4.78;;;5.60;99.90;;;;;;5096783;27;20494;-77
2023/12/23 05:38:59;;;;;;;4.90;1.70;;;5.60;99.90;;;;;;5132196;27;20031;-77
2023/12/23 05:41:25;;;;;;;4.43;1.52;;;5.70;99.90;;;;;;5096897;28;20055;-77
2023/12/23 05:43:51;;;;;;;3.42;1.40;;;5.60;99.90;;;;;;5114887;28;20039;-77
2023/12/23 05:46:16;;;;;;;3.17;0.80;;;5.60;99.90;;;;;;5113631;28;20054;-77
2023/12/23 05:48:42;;;;;;;5.38;0.77;;;5.60;99.90;;;;;;5112865;27;20039;-77
2023/12/23 05:51:11;;;;;;;2.75;0.50;;;5.70;99.90;;;;;;5115270;28;20082;-77
2023/12/23 05:53:36;;;;;;;2.92;0.63;;;5.80;99.90;;;;;;5096570;28;20043;-77
2023/12/23 05:56:06;;;;;;;1.75;0.55;;;5.70;99.90;;;;;;5097058;28;20040;-77
2023/12/23 05:58:32;;;;;;;2.10;0.52;;;5.60;99.90;;;;;;5112529;27;20104;-77
2023/12/23 06:00:58;;;;;;;1.85;0.40;;;5.50;99.90;;;;;;5097813;28;20044;-77
2023/12/23 06:03:23;;;;;;;2.33;0.65;;;5.70;99.90;;;;;;5129488;27;20545;-77
2023/12/23 06:05:49;;;;;;;1.90;0.60;;;5.70;99.90;;;;;;5148954;27;20369;-77
2023/12/23 06:08:15;;;;;;;4.03;0.95;;;5.60;99.90;;;;;;5112579;28;20035;-77
2023/12/23 06:10:40;;;;;;;1.98;0.40;;;5.60;99.90;;;;;;5097632;28;20396;-77
2023/12/23 06:13:06;;;;;;;2.10;0.73;;;5.70;99.90;;;;;;5113461;27;20111;-77
2023/12/23 06:15:32;;;;;;;1.23;0.55;;;5.60;99.90;;;;;;5097429;28;20151;-77
2023/12/23 06:17:57;;;;;;;3.38;0.60;;;5.60;99.90;;;;;;5109986;27;20055;-77
2023/12/23 06:20:23;;;;;;;1.08;0.40;;;5.60;99.90;;;;;;5114570;28;20058;-77
2023/12/23 06:22:49;;;;;;;2.25;0.70;;;5.60;99.90;;;;;;5113486;28;20075;-77
2023/12/23 06:25:15;;;;;;;1.42;0.45;;;5.70;99.90;;;;;;5094130;27;20116;-77
2023/12/23 06:27:41;;;;;;;3.00;0.47;;;5.60;99.90;;;;;;5130071;27;20502;-77
2023/12/23 06:30:07;;;;;;;1.23;0.50;;;5.50;99.90;;;;;;5133645;27;20035;-77
2023/12/23 06:32:32;;;;;;;2.15;0.50;;;5.60;99.90;;;;;;5118456;27;20032;-78
2023/12/23 06:34:58;;;;;;;2.53;0.60;;;5.50;99.90;;;;;;5108669;27;20402;-77
2023/12/23 06:37:24;;;;;;;1.80;0.70;;;5.60;99.90;;;;;;5120487;27;20097;-77
2023/12/23 06:39:49;;;;;;;2.40;0.57;;;5.60;99.90;;;;;;5096117;28;20047;-77
2023/12/23 06:42:15;;;;;;;3.03;0.63;;;5.60;99.90;;;;;;5097001;28;20035;-77
2023/12/23 06:44:40;;;;;;;3.00;0.60;;;5.60;99.90;;;;;;5096074;28;20087;-77
2023/12/23 06:47:07;;;;;;;1.38;0.40;;;5.60;99.90;;;;;;5101540;28;20032;-77
2023/12/23 06:49:33;;;;;;;3.22;0.43;;;5.70;99.90;;;;;;5112796;27;20036;-77
2023/12/23 06:51:58;;;;;;;2.00;0.90;;;5.60;99.90;;;;;;5130431;27;20101;-77
2023/12/23 06:54:24;;;;;;;1.50;0.43;;;5.60;99.90;;;;;;5130801;27;20047;-77
2023/12/23 06:56:50;;;;;;;4.05;1.00;;;5.60;99.90;;;;;;5129958;27;20122;-77
2023/12/23 06:59:15;;;;;;;1.63;0.63;;;5.60;99.90;;;;;;5113381;28;20415;-77
2023/12/23 07:01:41;;;;;;;1.20;0.50;;;5.50;99.90;;;;;;5095665;28;20044;-77
2023/12/23 07:04:08;;;;;;;1.85;0.63;;;5.60;99.90;;;;;;5113259;28;20066;-77
2023/12/23 07:06:35;;;;;;;1.50;0.40;;;5.60;99.90;;;;;;5095938;28;20043;-77
2023/12/23 07:09:01;;;;;;;0.68;0.30;;;5.60;99.90;;;;;;5093246;28;20039;-77
2023/12/23 07:11:27;;;;;;;2.05;0.60;;;5.60;99.90;;;;;;5099684;28;20084;-77
2023/12/23 07:13:53;;;;;;;1.10;0.50;;;5.60;99.90;;;;;;5131814;27;20031;-77
2023/12/23 07:16:19;;;;;;;1.05;0.50;;;5.50;99.90;;;;;;5129681;27;20084;-77
2023/12/23 07:18:44;;;;;;;3.75;0.50;;;5.50;99.90;;;;;;5130195;27;20043;-77
2023/12/23 07:21:11;;;;;;;0.75;0.50;;;5.50;99.90;;;;;;5095563;28;20043;-77
2023/12/23 07:23:36;;;;;;;1.25;0.50;;;5.50;99.90;;;;;;5096895;28;20040;-77
2023/12/23 07:26:03;;;;;;;1.63;0.50;;;5.40;99.90;;;;;;5113038;28;20403;-76
2023/12/23 07:28:29;;;;;;;2.03;0.43;;;5.40;99.90;;;;;;5113238;28;20054;-76
2023/12/23 07:30:55;;;;;;;1.00;0.35;;;5.40;99.90;;;;;;5112153;28;20027;-77
2023/12/23 07:33:21;;;;;;;1.92;0.55;;;5.30;99.90;;;;;;5096038;28;20441;-76
2023/12/23 07:35:47;;;;;;;2.53;0.40;;;5.40;99.90;;;;;;5096190;28;20035;-77
2023/12/23 07:38:13;;;;;;;2.10;0.60;;;5.30;99.90;;;;;;5095884;28;20130;-77
2023/12/23 07:40:40;;;;;;;1.52;0.40;;;5.40;99.90;;;;;;5094777;28;20043;-77
2023/12/23 07:43:06;;;;;;;0.63;0.30;;;5.40;99.90;;;;;;5095816;28;20044;-77
2023/12/23 07:45:32;;;;;;;1.00;0.40;;;5.40;99.90;;;;;;5095710;28;20043;-78
2023/12/23 07:47:58;;;;;;;1.92;0.45;;;5.40;99.90;;;;;;5095736;28;20035;-77
2023/12/23 07:50:24;;;;;;;1.05;0.50;;;5.40;99.90;;;;;;5111308;28;20659;-77
2023/12/23 07:52:49;;;;;;;1.80;0.50;;;5.40;99.90;;;;;;5094851;28;20042;-77
2023/12/23 07:55:15;;;;;;;1.85;0.40;;;5.40;99.90;;;;;;5095749;28;20039;-78
2023/12/23 07:57:42;;;;;;;1.75;0.50;;;5.40;99.90;;;;;;5095506;28;20036;-78
2023/12/23 08:00:09;;;;;;;0.70;0.40;;;5.40;99.90;;;;;;5095526;28;20047;-79
2023/12/23 08:02:35;;;;;;;1.40;0.38;;;5.30;99.90;;;;;;5111827;28;20071;-78
2023/12/23 08:05:02;;;;;;;0.45;0.30;;;5.50;99.90;;;;;;5112447;28;20124;-78
2023/12/23 08:07:28;;;;;;;2.95;1.05;;;5.40;99.90;;;;;;5112542;28;20050;-78
2023/12/23 08:09:53;;;;;;;1.23;0.40;;;5.30;99.90;;;;;;5095586;28;20035;-79
2023/12/23 08:12:19;;;;;;;2.03;0.60;;;5.40;99.90;;;;;;5111269;28;20047;-78
2023/12/23 08:14:45;;;;;;;1.10;0.50;;;5.40;99.90;;;;;;5095667;28;20495;-78
2023/12/23 08:17:11;;;;;;;0.50;0.40;;;5.40;99.90;;;;;;5095369;28;20035;-78
2023/12/23 08:19:37;;;;;;;1.65;0.57;;;5.40;99.90;;;;;;5094959;28;20036;-77
2023/12/23 08:22:03;;;;;;;0.75;0.50;;;5.40;99.90;;;;;;5110232;28;20085;-78
2023/12/23 08:24:29;;;;;;;0.85;0.50;;;5.40;99.90;;;;;;5111544;28;20095;-78
2023/12/23 08:26:56;;;;;;;0.85;0.52;;;5.40;99.90;;;;;;5112282;28;20441;-78
2023/12/23 08:29:24;;;;;;;1.20;0.50;;;5.40;99.90;;;;;;5095487;28;20459;-78
2023/12/23 08:31:50;;;;;;;3.00;0.55;;;5.30;99.90;;;;;;5094610;28;20053;-78
2023/12/23 08:34:15;;;;;;;0.40;0.32;;;5.40;99.90;;;;;;5112160;28;20512;-78
2023/12/23 08:36:41;;;;;;;2.58;0.60;;;5.50;99.90;;;;;;5112148;28;20088;-78
2023/12/23 08:39:07;;;;;;;0.70;0.50;;;5.40;99.90;;;;;;5095229;28;20131;-78
2023/12/23 08:41:35;;;;;;;0.60;0.50;;;5.40;99.90;;;;;;5112025;28;20039;-78
2023/12/23 08:44:04;;;;;;;1.15;0.50;;;5.40;99.90;;;;;;5110998;28;20054;-78
2023/12/23 08:46:30;;;;;;;0.98;0.47;;;5.50;99.90;;;;;;5095123;28;20288;-85
2023/12/23 08:48:56;;;;;;;2.40;0.60;;;5.60;99.90;;;;;;5125975;27;20039;-78
2023/12/23 08:51:22;;;;;;;0.82;0.30;;;5.60;99.90;;;;;;5095016;28;20118;-78
2023/12/23 08:53:48;;;;;;;1.05;0.30;;;5.60;99.90;;;;;;5128674;27;20177;-78
2023/12/23 08:56:14;;;;;;;1.55;0.40;;;5.70;99.90;;;;;;5093635;28;20035;-78
2023/12/23 08:58:39;;;;;;;0.50;0.28;;;5.70;99.90;;;;;;5128418;27;20233;-78
2023/12/23 09:01:05;;;;;;;0.98;0.30;;;5.80;99.90;;;;;;5098618;28;20043;-78
2023/12/23 09:03:31;;;;;;;0.70;0.20;;;5.70;99.90;;;;;;5126494;27;20122;-78
2023/12/23 09:05:58;;;;;;;1.17;0.28;;;5.80;99.90;;;;;;5106908;28;20040;-78
2023/12/23 09:08:24;;;;;;;0.73;0.20;;;5.80;99.90;;;;;;5127419;27;20028;-78
2023/12/23 09:10:50;;;;;;;0.40;0.30;;;5.80;99.90;;;;;;5112049;28;20059;-78
2023/12/23 09:13:16;;;;;;;1.73;0.30;;;5.90;99.90;;;;;;5144325;27;20205;-78
2023/12/23 09:15:41;;;;;;;0.30;0.30;;;5.90;99.90;;;;;;5094485;28;20039;-78
2023/12/23 09:18:07;;;;;;;0.30;0.30;;;6.00;99.90;;;;;;5095980;28;20522;-78
2023/12/23 09:20:33;;;;;;;0.82;0.30;;;6.00;99.90;;;;;;5128784;28;20050;-78
2023/12/23 09:22:59;;;;;;;0.68;0.50;;;5.90;99.90;;;;;;5128374;28;20122;-78
2023/12/23 09:25:25;;;;;;;0.90;0.32;;;6.00;99.90;;;;;;5093593;28;20469;-79
2023/12/23 09:27:50;;;;;;;0.77;0.30;;;6.00;99.90;;;;;;5146012;27;20043;-79
2023/12/23 09:30:16;;;;;;;0.95;0.50;;;6.00;99.90;;;;;;5128881;27;20119;-79
2023/12/23 09:32:42;;;;;;;2.17;0.30;;;6.00;99.90;;;;;;5132491;27;20032;-78
2023/12/23 09:35:08;;;;;;;5.32;1.00;;;6.10;99.90;;;;;;5131954;27;20032;-78
2023/12/23 09:37:34;;;;;;;1.52;0.40;;;6.10;99.90;;;;;;5132309;27;20078;-78
2023/12/23 09:40:01;;;;;;;0.75;0.50;;;6.20;99.90;;;;;;5132271;27;20483;-78
2023/12/23 09:42:28;;;;;;;0.50;0.40;;;6.20;99.90;;;;;;5129064;27;20044;-78
2023/12/23 09:44:53;;;;;;;0.85;0.38;;;6.10;99.90;;;;;;5135596;27;20420;-79
2023/12/23 09:47:19;;;;;;;1.38;0.55;;;6.10;99.90;;;;;;5132881;27;20046;-78
2023/12/23 09:49:45;;;;;;;0.82;0.50;;;6.30;99.90;;;;;;5132407;27;20043;-79
2023/12/23 09:52:12;;;;;;;4.93;1.35;;;6.20;99.90;;;;;;5114837;28;20042;-79
2023/12/23 09:54:40;;;;;;;0.90;0.50;;;6.20;99.90;;;;;;5097672;28;20399;-79
2023/12/23 09:57:07;;;;;;;1.02;0.32;;;6.20;99.90;;;;;;5096614;28;20471;-78
2023/12/23 09:59:34;;;;;;;0.60;0.30;;;6.20;99.90;;;;;;5097670;28;20056;-78
2023/12/23 10:02:00;;;;;;;0.20;0.20;;;6.40;99.90;;;;;;5114662;28;20073;-78
2023/12/23 10:04:28;;;;;;;0.17;0.08;;;6.20;99.90;;;;;;5096992;28;20031;-78
2023/12/23 10:06:54;;;;;;;0.10;0.10;;;6.20;99.90;;;;;;5112511;27;20035;-78
2023/12/23 10:09:20;;;;;;;0.10;0.10;;;6.30;99.90;;;;;;5120678;27;20494;-78
2023/12/23 10:11:45;;;;;;;0.10;0.10;;;6.30;99.90;;;;;;5118032;27;20040;-78
2023/12/23 10:14:12;;;;;;;0.20;0.20;;;6.20;99.90;;;;;;5095064;28;20035;-78
2023/12/23 10:16:40;;;;;;;0.10;0.10;;;6.20;99.90;;;;;;5117934;27;20044;-78
2023/12/23 10:19:08;;;;;;;0.10;0.10;;;6.30;99.90;;;;;;5125448;27;20036;-78
2023/12/23 10:21:34;;;;;;;0.10;0.10;;;6.20;99.90;;;;;;5096019;28;20085;-78
2023/12/23 10:23:59;;;;;;;0.35;0.13;;;6.20;99.90;;;;;;5093344;28;20039;-78
2023/12/23 10:26:26;;;;;;;0.45;0.10;;;6.20;99.90;;;;;;5093650;27;20054;-78
2023/12/23 10:28:55;;;;;;;0.13;0.13;;;6.20;99.90;;;;;;5095632;28;20458;-78
2023/12/23 10:31:24;;;;;;;0.10;0.05;;;6.10;99.90;;;;;;5131059;27;20047;-78
2023/12/23 10:33:56;;;;;;;0.10;0.10;;;6.10;99.90;;;;;;5111044;28;20134;-78
2023/12/23 10:36:24;;;;;;;0.10;0.10;;;6.00;99.90;;;;;;5095544;27;20036;-79
2023/12/23 10:38:56;;;;;;;0.10;0.10;;;6.10;99.90;;;;;;5140777;27;20490;-78
2023/12/23 10:41:28;;;;;;;0.15;0.10;;;6.10;99.90;;;;;;5120342;27;20032;-78
2023/12/23 10:43:55;;;;;;;;;;;6.20;99.90;;;;;;5096262;28;20043;-78
2023/12/23 10:46:21;;;;;;;0.10;0.10;;;6.20;99.90;;;;;;5109924;28;19924;-78
2023/12/23 10:48:47;;;;;;;0.10;0.10;;;6.10;99.90;;;;;;5126280;27;20036;-78
2023/12/23 10:51:15;;;;;;;0.10;0.10;;;6.10;99.90;;;;;;5145910;27;20036;-78
2023/12/23 10:53:41;;;;;;;0.10;0.10;;;6.10;99.90;;;;;;5096551;28;20399;-78
2023/12/23 10:56:09;;;;;;;0.85;0.15;;;6.10;99.90;;;;;;5091009;28;20048;-78
2023/12/23 10:58:35;;;;;;;0.10;0.10;;;6.10;99.90;;;;;;5103103;28;20055;-78
2023/12/23 11:01:02;;;;;;;0.70;0.25;;;6.20;99.90;;;;;;5098260;28;20063;-78
2023/12/23 11:03:32;;;;;;;0.25;0.20;;;6.10;99.90;;;;;;5078844;28;20512;-78
2023/12/23 11:06:00;;;;;;;0.17;0.17;;;6.20;99.90;;;;;;5112986;28;20119;-78
2023/12/23 11:08:28;;;;;;;0.10;0.10;;;6.20;99.90;;;;;;5110448;28;20040;-78
2023/12/23 11:10:54;;;;;;;0.20;0.20;;;6.20;99.90;;;;;;5123480;27;20032;-78
2023/12/23 11:13:20;;;;;;;0.32;0.13;;;6.20;99.90;;;;;;5116931;27;20059;-79
2023/12/23 11:15:46;;;;;;;0.50;0.20;;;6.20;99.90;;;;;;5127551;27;20035;-78
2023/12/23 11:18:12;;;;;;;0.10;0.10;;;6.20;99.90;;;;;;5113207;28;20566;-78
2023/12/23 11:20:41;;;;;;;0.15;0.15;;;6.20;99.90;;;;;;5129973;27;20127;-78
2023/12/23 11:23:29;;;;;;;0.20;0.20;;;6.20;99.90;;;;;;5095411;28;20040;-78
2023/12/23 11:25:55;;;;;;;0.22;0.20;;;6.20;99.90;;;;;;5095072;28;20104;-79
2023/12/23 11:28:22;;;;;;;0.22;0.22;;;6.20;99.90;;;;;;5096035;28;20399;-79
2023/12/23 11:30:58;;;;;;;1.27;0.30;;;6.20;99.90;;;;;;5105850;28;20032;-79
2023/12/23 11:33:27;;;;;;;0.68;0.30;;;6.30;99.90;;;;;;5093511;28;20032;-78
2023/12/23 11:36:00;;;;;;;0.65;0.35;;;6.20;99.90;;;;;;5130425;27;20039;-78
2023/12/23 11:38:46;;;;;;;0.30;0.30;;;6.20;99.90;;;;;;5144881;27;20158;-78
2023/12/23 11:41:13;;;;;;;1.35;0.30;;;6.30;99.90;;;;;;5109048;28;20070;-78
2023/12/23 11:43:42;;;;;;;0.32;0.32;;;6.20;99.90;;;;;;5093855;28;20137;-78
2023/12/23 11:46:08;;;;;;;0.68;0.40;;;6.30;99.90;;;;;;5093649;28;20452;-79
2023/12/23 11:48:33;;;;;;;1.13;0.40;;;6.30;99.90;;;;;;5122460;27;20035;-79
2023/12/23 11:50:59;;;;;;;5.10;0.90;;;6.30;99.90;;;;;;5110679;28;20435;-78
2023/12/23 11:53:25;;;;;;;0.68;0.40;;;6.20;99.90;;;;;;5095107;28;20042;-79
2023/12/23 11:55:51;;;;;;;0.70;0.35;;;6.30;99.90;;;;;;5129673;27;20084;-79
2023/12/23 11:58:17;;;;;;;1.00;0.70;;;6.20;99.90;;;;;;5109920;28;20051;-79
2023/12/23 12:00:42;;;;;;;1.33;0.50;;;6.20;99.90;;;;;;5126091;27;20181;-78
2023/12/23 12:03:09;;;;;;;1.00;0.60;;;6.20;99.90;;;;;;5110725;28;20039;-79
2023/12/23 12:05:35;;;;;;;1.05;0.52;;;6.20;99.90;;;;;;5118234;27;20047;-78
2023/12/23 12:08:01;;;;;;;1.30;0.60;;;6.20;99.90;;;;;;5093724;28;20027;-79
2023/12/23 12:10:27;;;;;;;1.95;0.80;;;6.20;99.90;;;;;;5141225;27;20430;-79
2023/12/23 12:12:53;;;;;;;1.15;0.65;;;6.20;99.90;;;;;;5129378;27;20046;-79
2023/12/23 12:15:19;;;;;;;1.42;0.70;;;6.20;99.90;;;;;;5128392;27;20035;-79
2023/12/23 12:17:44;;;;;;;1.55;0.70;;;6.20;99.90;;;;;;5105108;28;20053;-79
2023/12/23 12:20:10;;;;;;;1.58;0.80;;;6.20;99.90;;;;;;5129533;28;20122;-79
2023/12/23 12:22:43;;;;;;;2.10;0.70;;;6.20;99.90;;;;;;5146658;27;20385;-79
2023/12/23 12:25:08;;;;;;;1.70;0.70;;;6.20;99.90;;;;;;5142845;27;20040;-79
2023/12/23 12:27:34;;;;;;;2.10;1.08;;;6.30;99.90;;;;;;5124828;27;20495;-79
2023/12/23 12:30:00;;;;;;;1.88;0.90;;;6.30;99.90;;;;;;5112219;28;20038;-79
2023/12/23 12:32:25;;;;;;;1.38;0.90;;;6.20;99.90;;;;;;5088843;28;20119;-79
2023/12/23 12:35:01;;;;;;;2.13;1.10;;;6.30;99.90;;;;;;5126833;27;20476;-79
2023/12/23 12:37:27;;;;;;;2.15;1.00;;;6.30;99.90;;;;;;5092979;28;20040;-79
2023/12/23 12:39:53;;;;;;;1.42;0.88;;;6.30;99.90;;;;;;5149652;27;20035;-79
2023/12/23 12:42:19;;;;;;;1.40;1.00;;;6.40;99.90;;;;;;5094565;28;20115;-79
2023/12/23 12:44:44;;;;;;;2.88;1.33;;;6.30;99.90;;;;;;5112253;28;20480;-79
2023/12/23 12:47:10;;;;;;;3.22;1.10;;;6.40;99.90;;;;;;5144835;27;20039;-79
2023/12/23 12:49:44;;;;;;;2.17;1.10;;;6.40;99.90;;;;;;5109509;28;20035;-79